Terminal Aerodrome Forecast
Issued by NWS

Home | Current Version | Previous Version | Graphics & Text | Print | Product List | Glossary On
Versions: 1 2 3 4 5 6 7 8 9 10 11 12 13 14 15 16 17 18 19 20 21 22 23 24 25 26 27 28 29 30
000
FTUS45 KGGW 222326
TAFGDV
TAF
KGDV 222326Z 2300/2324 04006KT P6SM VCTS SCT060CB
     FM230300 04006KT P6SM VCSH BKN100
     FM231200 07005KT 6SM SHRA OVC090
     FM231700 10010KT 4SM TSRA BKN030CB
     FM232100 13012KT P6SM -TSRA SCT035CB=

USA.gov is the U.S. government's official web portal to all federal, state and local government web resources and services.